sensor_id;sensor_type;location;lat;lon;timestamp;P1;durP1;ratioP1;P2;durP2;ratioP2
14306;SDS011;7237;49.500;11.400;2023-09-30T00:01:00;13.30;;;6.07;;
14306;SDS011;7237;49.500;11.400;2023-09-30T00:03:29;12.80;;;6.18;;
14306;SDS011;7237;49.500;11.400;2023-09-30T00:05:56;12.48;;;6.65;;
14306;SDS011;7237;49.500;11.400;2023-09-30T00:08:23;13.32;;;7.15;;
14306;SDS011;7237;49.500;11.400;2023-09-30T00:10:50;17.05;;;9.02;;
14306;SDS011;7237;49.500;11.400;2023-09-30T00:13:19;17.70;;;8.18;;
14306;SDS011;7237;49.500;11.400;2023-09-30T00:15:46;17.20;;;9.38;;
14306;SDS011;7237;49.500;11.400;2023-09-30T00:18:13;15.55;;;8.18;;
14306;SDS011;7237;49.500;11.400;2023-09-30T00:20:42;11.20;;;5.40;;
14306;SDS011;7237;49.500;11.400;2023-09-30T00:23:09;11.93;;;5.57;;
14306;SDS011;7237;49.500;11.400;2023-09-30T00:25:36;13.20;;;5.15;;
14306;SDS011;7237;49.500;11.400;2023-09-30T00:28:04;11.60;;;5.78;;
14306;SDS011;7237;49.500;11.400;2023-09-30T00:30:31;9.25;;;5.00;;
14306;SDS011;7237;49.500;11.400;2023-09-30T00:32:58;12.55;;;4.95;;
14306;SDS011;7237;49.500;11.400;2023-09-30T00:35:25;8.10;;;4.80;;
14306;SDS011;7237;49.500;11.400;2023-09-30T00:37:54;10.90;;;5.80;;
14306;SDS011;7237;49.500;11.400;2023-09-30T00:40:21;11.60;;;4.40;;
14306;SDS011;7237;49.500;11.400;2023-09-30T00:42:48;8.30;;;3.97;;
14306;SDS011;7237;49.500;11.400;2023-09-30T00:45:15;7.32;;;4.15;;
14306;SDS011;7237;49.500;11.400;2023-09-30T00:47:42;7.38;;;3.78;;
14306;SDS011;7237;49.500;11.400;2023-09-30T00:50:09;8.55;;;4.38;;
14306;SDS011;7237;49.500;11.400;2023-09-30T00:52:38;7.28;;;3.72;;
14306;SDS011;7237;49.500;11.400;2023-09-30T00:55:07;8.15;;;4.13;;
14306;SDS011;7237;49.500;11.400;2023-09-30T00:57:35;8.75;;;4.10;;
14306;SDS011;7237;49.500;11.400;2023-09-30T01:00:04;10.48;;;4.63;;
14306;SDS011;7237;49.500;11.400;2023-09-30T01:02:31;7.05;;;3.88;;
14306;SDS011;7237;49.500;11.400;2023-09-30T01:04:59;11.52;;;4.25;;
14306;SDS011;7237;49.500;11.400;2023-09-30T01:07:27;9.23;;;4.40;;
14306;SDS011;7237;49.500;11.400;2023-09-30T01:09:54;7.80;;;4.30;;
14306;SDS011;7237;49.500;11.400;2023-09-30T01:12:23;8.15;;;4.15;;
14306;SDS011;7237;49.500;11.400;2023-09-30T01:14:50;8.30;;;4.10;;
14306;SDS011;7237;49.500;11.400;2023-09-30T01:17:17;9.07;;;4.60;;
14306;SDS011;7237;49.500;11.400;2023-09-30T01:19:44;8.02;;;4.32;;
14306;SDS011;7237;49.500;11.400;2023-09-30T01:22:13;6.82;;;3.70;;
14306;SDS011;7237;49.500;11.400;2023-09-30T01:24:41;5.90;;;3.17;;
14306;SDS011;7237;49.500;11.400;2023-09-30T01:27:12;8.07;;;3.97;;
14306;SDS011;7237;49.500;11.400;2023-09-30T01:29:41;6.70;;;4.00;;
14306;SDS011;7237;49.500;11.400;2023-09-30T01:32:08;7.65;;;3.67;;
14306;SDS011;7237;49.500;11.400;2023-09-30T01:34:36;6.90;;;3.78;;
14306;SDS011;7237;49.500;11.400;2023-09-30T01:37:03;8.63;;;4.13;;
14306;SDS011;7237;49.500;11.400;2023-09-30T01:39:32;7.28;;;3.60;;
14306;SDS011;7237;49.500;11.400;2023-09-30T01:41:59;7.80;;;3.75;;
14306;SDS011;7237;49.500;11.400;2023-09-30T01:44:27;6.35;;;3.47;;
14306;SDS011;7237;49.500;11.400;2023-09-30T01:46:54;6.93;;;3.67;;
14306;SDS011;7237;49.500;11.400;2023-09-30T01:49:21;6.93;;;3.83;;
14306;SDS011;7237;49.500;11.400;2023-09-30T01:51:49;6.15;;;3.72;;
14306;SDS011;7237;49.500;11.400;2023-09-30T01:54:16;7.97;;;3.63;;
14306;SDS011;7237;49.500;11.400;2023-09-30T01:56:44;6.35;;;3.90;;
14306;SDS011;7237;49.500;11.400;2023-09-30T01:59:11;8.55;;;3.88;;
14306;SDS011;7237;49.500;11.400;2023-09-30T02:01:39;5.63;;;3.40;;
14306;SDS011;7237;49.500;11.400;2023-09-30T02:04:06;9.98;;;4.20;;
14306;SDS011;7237;49.500;11.400;2023-09-30T02:06:33;9.70;;;4.45;;
14306;SDS011;7237;49.500;11.400;2023-09-30T02:09:00;9.52;;;3.78;;
14306;SDS011;7237;49.500;11.400;2023-09-30T02:11:29;4.85;;;2.95;;
14306;SDS011;7237;49.500;11.400;2023-09-30T02:13:58;7.28;;;3.65;;
14306;SDS011;7237;49.500;11.400;2023-09-30T02:16:25;6.60;;;3.50;;
14306;SDS011;7237;49.500;11.400;2023-09-30T02:18:52;7.10;;;3.53;;
14306;SDS011;7237;49.500;11.400;2023-09-30T02:21:19;9.32;;;3.83;;
14306;SDS011;7237;49.500;11.400;2023-09-30T02:23:47;5.55;;;3.25;;
14306;SDS011;7237;49.500;11.400;2023-09-30T02:26:14;5.88;;;3.40;;
14306;SDS011;7237;49.500;11.400;2023-09-30T02:28:42;7.53;;;3.70;;
14306;SDS011;7237;49.500;11.400;2023-09-30T02:31:10;7.45;;;3.58;;
14306;SDS011;7237;49.500;11.400;2023-09-30T02:33:37;6.60;;;2.97;;
14306;SDS011;7237;49.500;11.400;2023-09-30T02:36:06;6.95;;;3.78;;
14306;SDS011;7237;49.500;11.400;2023-09-30T02:38:33;6.68;;;3.78;;
14306;SDS011;7237;49.500;11.400;2023-09-30T02:41:02;7.03;;;3.75;;
14306;SDS011;7237;49.500;11.400;2023-09-30T02:43:29;7.22;;;3.80;;
14306;SDS011;7237;49.500;11.400;2023-09-30T02:45:56;6.25;;;3.42;;
14306;SDS011;7237;49.500;11.400;2023-09-30T02:48:24;6.38;;;3.03;;
14306;SDS011;7237;49.500;11.400;2023-09-30T02:50:52;7.30;;;3.25;;
14306;SDS011;7237;49.500;11.400;2023-09-30T02:53:19;5.90;;;3.10;;
14306;SDS011;7237;49.500;11.400;2023-09-30T02:55:47;6.70;;;3.17;;
14306;SDS011;7237;49.500;11.400;2023-09-30T02:58:14;6.72;;;3.45;;
14306;SDS011;7237;49.500;11.400;2023-09-30T03:00:47;6.90;;;3.25;;
14306;SDS011;7237;49.500;11.400;2023-09-30T03:03:14;9.90;;;3.60;;
14306;SDS011;7237;49.500;11.400;2023-09-30T03:05:42;7.75;;;3.10;;
14306;SDS011;7237;49.500;11.400;2023-09-30T03:08:10;6.90;;;3.50;;
14306;SDS011;7237;49.500;11.400;2023-09-30T03:10:37;7.72;;;3.45;;
14306;SDS011;7237;49.500;11.400;2023-09-30T03:13:05;6.63;;;3.22;;
14306;SDS011;7237;49.500;11.400;2023-09-30T03:15:34;5.53;;;3.45;;
14306;SDS011;7237;49.500;11.400;2023-09-30T03:18:01;5.10;;;3.15;;
14306;SDS011;7237;49.500;11.400;2023-09-30T03:20:28;9.02;;;3.30;;
14306;SDS011;7237;49.500;11.400;2023-09-30T03:22:57;5.53;;;3.28;;
14306;SDS011;7237;49.500;11.400;2023-09-30T03:25:24;7.43;;;3.28;;
14306;SDS011;7237;49.500;11.400;2023-09-30T03:27:52;7.32;;;3.80;;
14306;SDS011;7237;49.500;11.400;2023-09-30T03:30:19;6.82;;;3.63;;
14306;SDS011;7237;49.500;11.400;2023-09-30T03:32:46;9.00;;;3.90;;
14306;SDS011;7237;49.500;11.400;2023-09-30T03:35:13;6.90;;;3.85;;
14306;SDS011;7237;49.500;11.400;2023-09-30T03:37:42;6.38;;;3.50;;
14306;SDS011;7237;49.500;11.400;2023-09-30T03:40:11;6.60;;;4.18;;
14306;SDS011;7237;49.500;11.400;2023-09-30T03:42:39;6.50;;;3.72;;
14306;SDS011;7237;49.500;11.400;2023-09-30T03:45:08;8.25;;;4.20;;
14306;SDS011;7237;49.500;11.400;2023-09-30T03:47:36;7.97;;;3.72;;
14306;SDS011;7237;49.500;11.400;2023-09-30T03:50:04;5.43;;;3.67;;
14306;SDS011;7237;49.500;11.400;2023-09-30T03:52:37;5.90;;;3.80;;
14306;SDS011;7237;49.500;11.400;2023-09-30T03:55:05;7.93;;;3.70;;
14306;SDS011;7237;49.500;11.400;2023-09-30T03:57:34;7.90;;;3.80;;
14306;SDS011;7237;49.500;11.400;2023-09-30T04:00:02;6.28;;;3.50;;
14306;SDS011;7237;49.500;11.400;2023-09-30T04:02:31;6.15;;;3.33;;
14306;SDS011;7237;49.500;11.400;2023-09-30T04:04:59;5.47;;;2.80;;
14306;SDS011;7237;49.500;11.400;2023-09-30T04:07:29;5.50;;;3.20;;
14306;SDS011;7237;49.500;11.400;2023-09-30T04:09:56;5.53;;;3.53;;
14306;SDS011;7237;49.500;11.400;2023-09-30T04:12:26;7.45;;;3.05;;
14306;SDS011;7237;49.500;11.400;2023-09-30T04:14:55;3.70;;;2.75;;
14306;SDS011;7237;49.500;11.400;2023-09-30T04:17:23;5.80;;;3.60;;
14306;SDS011;7237;49.500;11.400;2023-09-30T04:19:51;4.50;;;2.83;;
14306;SDS011;7237;49.500;11.400;2023-09-30T04:22:18;6.70;;;3.38;;
14306;SDS011;7237;49.500;11.400;2023-09-30T04:24:47;5.07;;;3.53;;
14306;SDS011;7237;49.500;11.400;2023-09-30T04:27:15;4.13;;;3.05;;
14306;SDS011;7237;49.500;11.400;2023-09-30T04:29:42;5.50;;;2.90;;
14306;SDS011;7237;49.500;11.400;2023-09-30T04:32:10;6.47;;;3.03;;
14306;SDS011;7237;49.500;11.400;2023-09-30T04:34:37;4.82;;;2.83;;
14306;SDS011;7237;49.500;11.400;2023-09-30T04:37:04;3.85;;;2.60;;
14306;SDS011;7237;49.500;11.400;2023-09-30T04:39:34;3.38;;;2.63;;
14306;SDS011;7237;49.500;11.400;2023-09-30T04:42:01;3.90;;;2.60;;
14306;SDS011;7237;49.500;11.400;2023-09-30T04:44:29;5.45;;;2.75;;
14306;SDS011;7237;49.500;11.400;2023-09-30T04:46:56;4.13;;;2.08;;
14306;SDS011;7237;49.500;11.400;2023-09-30T04:49:26;3.95;;;2.55;;
14306;SDS011;7237;49.500;11.400;2023-09-30T04:51:53;3.13;;;1.90;;
14306;SDS011;7237;49.500;11.400;2023-09-30T04:54:21;3.72;;;2.33;;
14306;SDS011;7237;49.500;11.400;2023-09-30T04:56:48;3.58;;;2.05;;
14306;SDS011;7237;49.500;11.400;2023-09-30T04:59:16;2.92;;;1.90;;
14306;SDS011;7237;49.500;11.400;2023-09-30T05:01:43;2.58;;;2.08;;
14306;SDS011;7237;49.500;11.400;2023-09-30T05:04:10;2.50;;;1.90;;
14306;SDS011;7237;49.500;11.400;2023-09-30T05:06:38;3.20;;;1.70;;
14306;SDS011;7237;49.500;11.400;2023-09-30T05:09:05;2.80;;;1.70;;
14306;SDS011;7237;49.500;11.400;2023-09-30T05:11:33;1.95;;;1.70;;
14306;SDS011;7237;49.500;11.400;2023-09-30T05:14:00;3.13;;;1.70;;
14306;SDS011;7237;49.500;11.400;2023-09-30T05:16:30;4.68;;;2.15;;
14306;SDS011;7237;49.500;11.400;2023-09-30T05:18:57;4.05;;;1.65;;
14306;SDS011;7237;49.500;11.400;2023-09-30T05:21:24;2.70;;;1.70;;
14306;SDS011;7237;49.500;11.400;2023-09-30T05:23:52;3.28;;;1.80;;
14306;SDS011;7237;49.500;11.400;2023-09-30T05:26:20;2.55;;;1.90;;
14306;SDS011;7237;49.500;11.400;2023-09-30T05:28:47;3.25;;;1.80;;
14306;SDS011;7237;49.500;11.400;2023-09-30T05:31:14;2.63;;;1.70;;
14306;SDS011;7237;49.500;11.400;2023-09-30T05:33:41;3.42;;;2.00;;
14306;SDS011;7237;49.500;11.400;2023-09-30T05:36:08;3.75;;;1.95;;
14306;SDS011;7237;49.500;11.400;2023-09-30T05:38:35;5.18;;;2.03;;
14306;SDS011;7237;49.500;11.400;2023-09-30T05:41:03;2.33;;;1.50;;
14306;SDS011;7237;49.500;11.400;2023-09-30T05:43:31;5.82;;;2.22;;
14306;SDS011;7237;49.500;11.400;2023-09-30T05:45:58;4.43;;;1.90;;
14306;SDS011;7237;49.500;11.400;2023-09-30T05:48:25;3.33;;;2.10;;
14306;SDS011;7237;49.500;11.400;2023-09-30T05:50:52;3.15;;;1.98;;
14306;SDS011;7237;49.500;11.400;2023-09-30T05:53:19;5.07;;;2.00;;
14306;SDS011;7237;49.500;11.400;2023-09-30T05:55:47;3.73;;;2.47;;
14306;SDS011;7237;49.500;11.400;2023-09-30T05:58:17;4.17;;;2.60;;
14306;SDS011;7237;49.500;11.400;2023-09-30T06:00:44;4.43;;;2.70;;
14306;SDS011;7237;49.500;11.400;2023-09-30T06:03:11;4.20;;;2.10;;
14306;SDS011;7237;49.500;11.400;2023-09-30T06:05:39;4.43;;;2.40;;
14306;SDS011;7237;49.500;11.400;2023-09-30T06:08:07;2.70;;;2.37;;
14306;SDS011;7237;49.500;11.400;2023-09-30T06:10:35;7.93;;;3.00;;
14306;SDS011;7237;49.500;11.400;2023-09-30T06:13:03;4.03;;;2.50;;
14306;SDS011;7237;49.500;11.400;2023-09-30T06:15:32;3.72;;;2.22;;
14306;SDS011;7237;49.500;11.400;2023-09-30T06:17:59;5.00;;;2.60;;
14306;SDS011;7237;49.500;11.400;2023-09-30T06:20:26;5.25;;;2.40;;
14306;SDS011;7237;49.500;11.400;2023-09-30T06:22:55;4.27;;;2.33;;
14306;SDS011;7237;49.500;11.400;2023-09-30T06:25:23;5.03;;;2.42;;
14306;SDS011;7237;49.500;11.400;2023-09-30T06:27:50;3.78;;;2.35;;
14306;SDS011;7237;49.500;11.400;2023-09-30T06:30:17;2.90;;;2.10;;
14306;SDS011;7237;49.500;11.400;2023-09-30T06:32:47;3.45;;;2.53;;
14306;SDS011;7237;49.500;11.400;2023-09-30T06:35:14;3.15;;;2.15;;
14306;SDS011;7237;49.500;11.400;2023-09-30T06:53:35;3.22;;;2.30;;
14306;SDS011;7237;49.500;11.400;2023-09-30T06:56:04;5.70;;;2.88;;
14306;SDS011;7237;49.500;11.400;2023-09-30T06:58:31;4.82;;;2.58;;
14306;SDS011;7237;49.500;11.400;2023-09-30T07:00:58;5.60;;;2.42;;
14306;SDS011;7237;49.500;11.400;2023-09-30T07:03:25;4.28;;;2.50;;
14306;SDS011;7237;49.500;11.400;2023-09-30T07:05:52;3.05;;;2.13;;
14306;SDS011;7237;49.500;11.400;2023-09-30T07:08:21;5.68;;;2.42;;
14306;SDS011;7237;49.500;11.400;2023-09-30T07:10:49;4.40;;;2.65;;
14306;SDS011;7237;49.500;11.400;2023-09-30T07:13:17;6.38;;;3.03;;
14306;SDS011;7237;49.500;11.400;2023-09-30T07:15:45;4.20;;;2.03;;
14306;SDS011;7237;49.500;11.400;2023-09-30T07:18:12;4.68;;;2.40;;
14306;SDS011;7237;49.500;11.400;2023-09-30T07:20:39;2.97;;;2.00;;
14306;SDS011;7237;49.500;11.400;2023-09-30T07:23:06;4.68;;;2.67;;
14306;SDS011;7237;49.500;11.400;2023-09-30T07:25:34;4.30;;;2.42;;
14306;SDS011;7237;49.500;11.400;2023-09-30T07:28:02;3.55;;;2.33;;
14306;SDS011;7237;49.500;11.400;2023-09-30T07:30:32;3.97;;;2.40;;
14306;SDS011;7237;49.500;11.400;2023-09-30T07:32:59;5.53;;;2.38;;
14306;SDS011;7237;49.500;11.400;2023-09-30T07:35:26;2.65;;;2.08;;
14306;SDS011;7237;49.500;11.400;2023-09-30T07:37:53;4.40;;;2.20;;
14306;SDS011;7237;49.500;11.400;2023-09-30T07:40:20;4.65;;;2.40;;
14306;SDS011;7237;49.500;11.400;2023-09-30T07:42:47;2.95;;;2.35;;
14306;SDS011;7237;49.500;11.400;2023-09-30T07:45:16;3.65;;;2.10;;
14306;SDS011;7237;49.500;11.400;2023-09-30T07:47:45;5.38;;;2.60;;
14306;SDS011;7237;49.500;11.400;2023-09-30T07:50:12;5.25;;;2.53;;
14306;SDS011;7237;49.500;11.400;2023-09-30T07:52:39;3.88;;;2.33;;
14306;SDS011;7237;49.500;11.400;2023-09-30T07:55:07;4.78;;;2.60;;
14306;SDS011;7237;49.500;11.400;2023-09-30T07:57:35;4.30;;;2.53;;
14306;SDS011;7237;49.500;11.400;2023-09-30T08:00:02;3.65;;;2.22;;
14306;SDS011;7237;49.500;11.400;2023-09-30T08:02:34;6.35;;;2.55;;
14306;SDS011;7237;49.500;11.400;2023-09-30T08:05:01;3.72;;;2.10;;
14306;SDS011;7237;49.500;11.400;2023-09-30T08:07:31;7.47;;;2.63;;
14306;SDS011;7237;49.500;11.400;2023-09-30T08:09:58;4.50;;;2.40;;
14306;SDS011;7237;49.500;11.400;2023-09-30T08:12:25;4.80;;;2.22;;
14306;SDS011;7237;49.500;11.400;2023-09-30T08:14:52;5.30;;;2.65;;
14306;SDS011;7237;49.500;11.400;2023-09-30T08:17:19;4.22;;;2.42;;
14306;SDS011;7237;49.500;11.400;2023-09-30T08:19:47;5.25;;;2.53;;
14306;SDS011;7237;49.500;11.400;2023-09-30T08:22:14;5.15;;;2.47;;
14306;SDS011;7237;49.500;11.400;2023-09-30T08:24:41;4.03;;;2.28;;
14306;SDS011;7237;49.500;11.400;2023-09-30T08:27:09;5.00;;;2.30;;
14306;SDS011;7237;49.500;11.400;2023-09-30T08:29:36;3.00;;;2.25;;
14306;SDS011;7237;49.500;11.400;2023-09-30T08:32:03;3.78;;;2.10;;
14306;SDS011;7237;49.500;11.400;2023-09-30T08:34:32;2.92;;;2.20;;
14306;SDS011;7237;49.500;11.400;2023-09-30T08:37:00;5.40;;;2.65;;
14306;SDS011;7237;49.500;11.400;2023-09-30T08:39:27;4.20;;;2.08;;
14306;SDS011;7237;49.500;11.400;2023-09-30T08:41:54;5.40;;;2.50;;
14306;SDS011;7237;49.500;11.400;2023-09-30T08:44:23;4.75;;;2.90;;
14306;SDS011;7237;49.500;11.400;2023-09-30T08:46:51;4.00;;;2.70;;
14306;SDS011;7237;49.500;11.400;2023-09-30T08:49:18;5.80;;;2.88;;
14306;SDS011;7237;49.500;11.400;2023-09-30T08:51:46;5.80;;;2.60;;
14306;SDS011;7237;49.500;11.400;2023-09-30T08:54:16;3.33;;;2.20;;
14306;SDS011;7237;49.500;11.400;2023-09-30T08:56:44;2.83;;;2.20;;
14306;SDS011;7237;49.500;11.400;2023-09-30T08:59:15;4.95;;;2.28;;
14306;SDS011;7237;49.500;11.400;2023-09-30T09:01:42;6.45;;;2.60;;
14306;SDS011;7237;49.500;11.400;2023-09-30T09:04:09;4.22;;;1.95;;
14306;SDS011;7237;49.500;11.400;2023-09-30T09:06:36;3.67;;;2.30;;
14306;SDS011;7237;49.500;11.400;2023-09-30T09:09:13;4.50;;;2.47;;
14306;SDS011;7237;49.500;11.400;2023-09-30T09:11:43;4.88;;;2.15;;
14306;SDS011;7237;49.500;11.400;2023-09-30T09:14:10;4.72;;;2.80;;
14306;SDS011;7237;49.500;11.400;2023-09-30T09:16:37;3.92;;;2.15;;
14306;SDS011;7237;49.500;11.400;2023-09-30T09:19:13;5.25;;;2.63;;
14306;SDS011;7237;49.500;11.400;2023-09-30T09:21:52;4.68;;;2.45;;
14306;SDS011;7237;49.500;11.400;2023-09-30T09:24:26;3.22;;;2.33;;
14306;SDS011;7237;49.500;11.400;2023-09-30T09:26:59;4.13;;;2.35;;
14306;SDS011;7237;49.500;11.400;2023-09-30T09:29:30;4.38;;;2.60;;
14306;SDS011;7237;49.500;11.400;2023-09-30T09:32:06;6.78;;;3.08;;
14306;SDS011;7237;49.500;11.400;2023-09-30T09:34:33;4.78;;;2.38;;
14306;SDS011;7237;49.500;11.400;2023-09-30T09:37:00;5.88;;;2.58;;
14306;SDS011;7237;49.500;11.400;2023-09-30T09:39:39;5.00;;;2.90;;
14306;SDS011;7237;49.500;11.400;2023-09-30T09:42:08;5.90;;;2.60;;
14306;SDS011;7237;49.500;11.400;2023-09-30T09:44:36;4.10;;;2.10;;
14306;SDS011;7237;49.500;11.400;2023-09-30T09:47:03;2.80;;;2.20;;
14306;SDS011;7237;49.500;11.400;2023-09-30T09:49:32;3.17;;;2.05;;
14306;SDS011;7237;49.500;11.400;2023-09-30T09:51:59;4.35;;;2.50;;
14306;SDS011;7237;49.500;11.400;2023-09-30T09:54:27;5.03;;;2.55;;
14306;SDS011;7237;49.500;11.400;2023-09-30T09:56:55;4.10;;;2.70;;
14306;SDS011;7237;49.500;11.400;2023-09-30T09:59:24;4.18;;;2.53;;
14306;SDS011;7237;49.500;11.400;2023-09-30T10:01:52;3.92;;;2.45;;
14306;SDS011;7237;49.500;11.400;2023-09-30T10:04:19;5.65;;;2.67;;
14306;SDS011;7237;49.500;11.400;2023-09-30T10:06:46;6.05;;;2.50;;
14306;SDS011;7237;49.500;11.400;2023-09-30T10:09:17;4.95;;;2.60;;
14306;SDS011;7237;49.500;11.400;2023-09-30T10:11:45;5.45;;;2.60;;
14306;SDS011;7237;49.500;11.400;2023-09-30T10:14:17;4.57;;;2.85;;
14306;SDS011;7237;49.500;11.400;2023-09-30T10:16:59;4.03;;;2.50;;
14306;SDS011;7237;49.500;11.400;2023-09-30T10:19:26;5.25;;;2.70;;
14306;SDS011;7237;49.500;11.400;2023-09-30T10:22:19;6.20;;;2.58;;
14306;SDS011;7237;49.500;11.400;2023-09-30T10:24:47;5.75;;;2.42;;
14306;SDS011;7237;49.500;11.400;2023-09-30T10:27:30;3.97;;;2.25;;
14306;SDS011;7237;49.500;11.400;2023-09-30T10:29:58;5.85;;;2.85;;
14306;SDS011;7237;49.500;11.400;2023-09-30T10:35:09;4.30;;;2.70;;
14306;SDS011;7237;49.500;11.400;2023-09-30T10:37:36;5.03;;;2.70;;
14306;SDS011;7237;49.500;11.400;2023-09-30T10:40:03;4.40;;;2.10;;
14306;SDS011;7237;49.500;11.400;2023-09-30T10:42:45;5.60;;;2.30;;
14306;SDS011;7237;49.500;11.400;2023-09-30T10:48:11;3.97;;;2.53;;
14306;SDS011;7237;49.500;11.400;2023-09-30T10:51:01;4.50;;;2.70;;
14306;SDS011;7237;49.500;11.400;2023-09-30T10:53:40;4.47;;;2.60;;
14306;SDS011;7237;49.500;11.400;2023-09-30T10:56:07;4.63;;;1.98;;
14306;SDS011;7237;49.500;11.400;2023-09-30T10:58:44;4.10;;;2.05;;
14306;SDS011;7237;49.500;11.400;2023-09-30T11:01:11;5.15;;;2.20;;
14306;SDS011;7237;49.500;11.400;2023-09-30T11:03:39;5.30;;;1.90;;
14306;SDS011;7237;49.500;11.400;2023-09-30T11:06:08;5.55;;;2.38;;
14306;SDS011;7237;49.500;11.400;2023-09-30T11:08:39;3.83;;;2.30;;
14306;SDS011;7237;49.500;11.400;2023-09-30T11:11:07;3.97;;;2.30;;
14306;SDS011;7237;49.500;11.400;2023-09-30T11:13:34;3.22;;;2.00;;
14306;SDS011;7237;49.500;11.400;2023-09-30T11:16:01;3.03;;;2.10;;
14306;SDS011;7237;49.500;11.400;2023-09-30T11:18:29;2.00;;;1.70;;
14306;SDS011;7237;49.500;11.400;2023-09-30T11:21:03;3.47;;;1.75;;
14306;SDS011;7237;49.500;11.400;2023-09-30T11:23:32;2.67;;;1.88;;
14306;SDS011;7237;49.500;11.400;2023-09-30T11:26:00;2.72;;;1.75;;
14306;SDS011;7237;49.500;11.400;2023-09-30T11:28:35;21.92;;;2.47;;
14306;SDS011;7237;49.500;11.400;2023-09-30T11:31:02;2.65;;;1.90;;
14306;SDS011;7237;49.500;11.400;2023-09-30T11:33:31;2.38;;;1.65;;
14306;SDS011;7237;49.500;11.400;2023-09-30T11:36:01;3.40;;;2.05;;
14306;SDS011;7237;49.500;11.400;2023-09-30T11:38:29;3.80;;;1.85;;
14306;SDS011;7237;49.500;11.400;2023-09-30T11:41:01;3.20;;;2.10;;
14306;SDS011;7237;49.500;11.400;2023-09-30T11:43:29;3.20;;;1.95;;
14306;SDS011;7237;49.500;11.400;2023-09-30T11:46:06;3.30;;;2.13;;
14306;SDS011;7237;49.500;11.400;2023-09-30T11:48:33;4.15;;;2.08;;
14306;SDS011;7237;49.500;11.400;2023-09-30T11:51:02;3.30;;;2.00;;
14306;SDS011;7237;49.500;11.400;2023-09-30T11:53:29;2.35;;;1.55;;
14306;SDS011;7237;49.500;11.400;2023-09-30T11:55:56;2.30;;;1.42;;
14306;SDS011;7237;49.500;11.400;2023-09-30T11:58:26;5.85;;;2.38;;
14306;SDS011;7237;49.500;11.400;2023-09-30T12:00:53;4.80;;;2.42;;
14306;SDS011;7237;49.500;11.400;2023-09-30T12:03:22;3.88;;;2.28;;
14306;SDS011;7237;49.500;11.400;2023-09-30T12:05:50;2.47;;;1.83;;
14306;SDS011;7237;49.500;11.400;2023-09-30T12:08:20;4.55;;;2.17;;
14306;SDS011;7237;49.500;11.400;2023-09-30T12:10:47;3.35;;;2.00;;
14306;SDS011;7237;49.500;11.400;2023-09-30T12:13:14;4.13;;;1.90;;
14306;SDS011;7237;49.500;11.400;2023-09-30T12:15:43;3.25;;;2.08;;
14306;SDS011;7237;49.500;11.400;2023-09-30T12:18:10;4.03;;;2.15;;
14306;SDS011;7237;49.500;11.400;2023-09-30T12:20:42;2.67;;;2.15;;
14306;SDS011;7237;49.500;11.400;2023-09-30T12:23:09;4.40;;;2.42;;
14306;SDS011;7237;49.500;11.400;2023-09-30T12:25:36;4.32;;;2.20;;
14306;SDS011;7237;49.500;11.400;2023-09-30T12:28:03;3.72;;;2.15;;
14306;SDS011;7237;49.500;11.400;2023-09-30T12:30:30;3.97;;;2.38;;
14306;SDS011;7237;49.500;11.400;2023-09-30T12:32:59;4.15;;;2.30;;
14306;SDS011;7237;49.500;11.400;2023-09-30T12:35:26;4.50;;;2.28;;
14306;SDS011;7237;49.500;11.400;2023-09-30T12:37:53;3.90;;;2.30;;
14306;SDS011;7237;49.500;11.400;2023-09-30T12:40:21;4.72;;;2.30;;
14306;SDS011;7237;49.500;11.400;2023-09-30T12:42:48;4.10;;;2.20;;
14306;SDS011;7237;49.500;11.400;2023-09-30T12:45:15;4.28;;;2.30;;
14306;SDS011;7237;49.500;11.400;2023-09-30T12:47:43;4.03;;;2.33;;
14306;SDS011;7237;49.500;11.400;2023-09-30T12:50:13;3.22;;;2.03;;
14306;SDS011;7237;49.500;11.400;2023-09-30T12:52:40;4.47;;;2.65;;
14306;SDS011;7237;49.500;11.400;2023-09-30T12:55:07;4.65;;;2.53;;
14306;SDS011;7237;49.500;11.400;2023-09-30T12:57:35;5.43;;;2.58;;
14306;SDS011;7237;49.500;11.400;2023-09-30T13:00:02;3.78;;;2.53;;
14306;SDS011;7237;49.500;11.400;2023-09-30T13:02:30;5.03;;;2.38;;
14306;SDS011;7237;49.500;11.400;2023-09-30T13:04:57;4.40;;;2.47;;
14306;SDS011;7237;49.500;11.400;2023-09-30T13:07:26;4.60;;;2.30;;
14306;SDS011;7237;49.500;11.400;2023-09-30T13:09:53;3.55;;;2.40;;
14306;SDS011;7237;49.500;11.400;2023-09-30T13:12:21;5.10;;;2.55;;
14306;SDS011;7237;49.500;11.400;2023-09-30T13:14:49;4.47;;;2.45;;
14306;SDS011;7237;49.500;11.400;2023-09-30T13:17:16;4.75;;;2.10;;
14306;SDS011;7237;49.500;11.400;2023-09-30T13:19:43;4.35;;;2.50;;
14306;SDS011;7237;49.500;11.400;2023-09-30T13:22:10;8.98;;;3.08;;
14306;SDS011;7237;49.500;11.400;2023-09-30T13:24:39;4.03;;;2.45;;
14306;SDS011;7237;49.500;11.400;2023-09-30T13:27:07;5.50;;;3.00;;
14306;SDS011;7237;49.500;11.400;2023-09-30T13:29:34;6.50;;;2.90;;
14306;SDS011;7237;49.500;11.400;2023-09-30T13:32:01;4.50;;;2.70;;
14306;SDS011;7237;49.500;11.400;2023-09-30T13:34:29;5.15;;;2.88;;
14306;SDS011;7237;49.500;11.400;2023-09-30T13:36:56;5.43;;;2.90;;
14306;SDS011;7237;49.500;11.400;2023-09-30T13:39:23;4.75;;;2.80;;
14306;SDS011;7237;49.500;11.400;2023-09-30T13:41:52;5.38;;;3.05;;
14306;SDS011;7237;49.500;11.400;2023-09-30T13:44:19;3.10;;;2.33;;
14306;SDS011;7237;49.500;11.400;2023-09-30T13:46:46;4.85;;;2.85;;
14306;SDS011;7237;49.500;11.400;2023-09-30T13:49:13;4.45;;;2.95;;
14306;SDS011;7237;49.500;11.400;2023-09-30T13:51:40;5.07;;;3.10;;
14306;SDS011;7237;49.500;11.400;2023-09-30T13:54:07;4.88;;;2.72;;
14306;SDS011;7237;49.500;11.400;2023-09-30T13:56:34;6.15;;;2.63;;
14306;SDS011;7237;49.500;11.400;2023-09-30T13:59:03;3.72;;;2.40;;
14306;SDS011;7237;49.500;11.400;2023-09-30T14:01:30;4.25;;;2.60;;
14306;SDS011;7237;49.500;11.400;2023-09-30T14:03:57;5.80;;;3.30;;
14306;SDS011;7237;49.500;11.400;2023-09-30T14:06:25;4.57;;;3.05;;
14306;SDS011;7237;49.500;11.400;2023-09-30T14:08:52;7.10;;;2.92;;
14306;SDS011;7237;49.500;11.400;2023-09-30T14:11:19;4.75;;;2.63;;
14306;SDS011;7237;49.500;11.400;2023-09-30T14:13:46;4.63;;;2.40;;
14306;SDS011;7237;49.500;11.400;2023-09-30T14:16:15;5.45;;;2.67;;
14306;SDS011;7237;49.500;11.400;2023-09-30T14:18:42;5.63;;;2.60;;
14306;SDS011;7237;49.500;11.400;2023-09-30T14:21:10;8.20;;;2.92;;
14306;SDS011;7237;49.500;11.400;2023-09-30T14:23:37;5.25;;;2.85;;
14306;SDS011;7237;49.500;11.400;2023-09-30T14:26:04;6.30;;;2.47;;
14306;SDS011;7237;49.500;11.400;2023-09-30T14:28:35;3.67;;;2.78;;
14306;SDS011;7237;49.500;11.400;2023-09-30T14:31:03;6.28;;;2.95;;
14306;SDS011;7237;49.500;11.400;2023-09-30T14:33:31;7.13;;;2.95;;
14306;SDS011;7237;49.500;11.400;2023-09-30T14:35:59;6.50;;;2.72;;
14306;SDS011;7237;49.500;11.400;2023-09-30T14:38:26;6.13;;;2.92;;
14306;SDS011;7237;49.500;11.400;2023-09-30T14:40:53;4.88;;;2.85;;
14306;SDS011;7237;49.500;11.400;2023-09-30T14:43:20;5.38;;;2.97;;
14306;SDS011;7237;49.500;11.400;2023-09-30T14:45:47;6.78;;;3.20;;
14306;SDS011;7237;49.500;11.400;2023-09-30T14:48:14;5.97;;;3.17;;
14306;SDS011;7237;49.500;11.400;2023-09-30T14:50:49;7.13;;;2.80;;
14306;SDS011;7237;49.500;11.400;2023-09-30T14:53:16;6.30;;;3.35;;
14306;SDS011;7237;49.500;11.400;2023-09-30T14:55:44;5.80;;;3.22;;
14306;SDS011;7237;49.500;11.400;2023-09-30T14:58:11;4.47;;;2.90;;
14306;SDS011;7237;49.500;11.400;2023-09-30T15:00:38;5.35;;;3.13;;
14306;SDS011;7237;49.500;11.400;2023-09-30T15:03:05;4.40;;;2.75;;
14306;SDS011;7237;49.500;11.400;2023-09-30T15:05:32;6.60;;;3.08;;
14306;SDS011;7237;49.500;11.400;2023-09-30T15:08:01;6.50;;;3.00;;
14306;SDS011;7237;49.500;11.400;2023-09-30T15:10:28;7.13;;;3.40;;
14306;SDS011;7237;49.500;11.400;2023-09-30T15:12:55;4.57;;;3.20;;
14306;SDS011;7237;49.500;11.400;2023-09-30T15:15:23;4.53;;;3.28;;